Time;durP1;ratioP1;P1;durP2;ratioP2;P2;SDS_P1;SDS_P2;PMS_P1;PMS_P2;Temp;Humidity;BMP_temperature;BMP_pressure;BME280_temperature;BME280_humidity;BME280_pressure;Samples;Min_cycle;Max_cycle;Signal;HPM_P1;HPM_P2
2022/05/10 00:00:12;;;;;;;1.83;1.42;;;22.20;35.70;;;26.03;23.08;101835.84;5092892;28;20063;-15
2022/05/10 00:02:43;;;;;;;2.17;1.30;;;22.20;35.70;;;26.11;23.11;101827.25;5075157;28;20052;-20
2022/05/10 00:05:09;;;;;;;1.77;1.38;;;22.20;35.80;;;26.11;23.08;101835.28;5074039;28;20051;-16
2022/05/10 00:07:36;;;;;;;1.95;1.38;;;22.20;35.80;;;26.07;23.12;101832.81;5092167;28;20059;-16
2022/05/10 00:10:08;;;;;;;2.50;1.55;;;22.20;35.80;;;26.05;23.14;101820.50;5092186;28;20131;-15
2022/05/10 00:12:33;;;;;;;2.38;1.52;;;22.20;35.80;;;26.06;23.14;101820.41;5093456;28;20127;-15
2022/05/10 00:14:59;;;;;;;2.35;1.90;;;22.20;35.80;;;26.01;23.14;101811.81;5093319;28;20403;-16
2022/05/10 00:17:40;;;;;;;1.63;1.27;;;22.20;35.80;;;26.06;23.17;101828.44;5092656;28;20506;-16
2022/05/10 00:20:13;;;;;;;1.85;1.40;;;22.20;35.90;;;26.07;22.98;101810.53;5072947;28;20411;-15
2022/05/10 00:22:40;;;;;;;2.03;1.52;;;22.20;35.80;;;26.01;23.12;101802.91;5092604;28;20040;-16
2022/05/10 00:25:09;;;;;;;2.05;1.60;;;22.20;35.90;;;26.01;23.17;101803.78;5092704;28;20044;-15
2022/05/10 00:27:35;;;;;;;2.58;1.60;;;22.20;35.90;;;26.02;23.20;101804.63;5092921;28;20075;-15
2022/05/10 00:30:01;;;;;;;1.77;1.60;;;22.20;35.80;;;26.07;23.14;101807.84;5091616;28;20399;-16
2022/05/10 00:32:32;;;;;;;1.75;1.55;;;22.20;35.80;;;26.06;23.14;101811.47;5092518;28;20040;-15
2022/05/10 00:34:58;;;;;;;2.00;1.52;;;22.20;35.90;;;26.10;23.10;101814.81;5093144;28;20476;-15
2022/05/10 00:37:27;;;;;;;2.17;1.35;;;22.20;35.90;;;25.98;23.25;101793.25;5092462;28;20103;-15
2022/05/10 00:39:54;;;;;;;3.22;1.58;;;22.20;35.90;;;26.02;23.12;101801.94;5072691;28;20086;-15
2022/05/10 00:42:53;;;;;;;3.00;1.48;;;22.20;35.90;;;26.05;23.18;101802.59;5092388;28;20480;-16
2022/05/10 00:45:25;;;;;;;1.95;1.42;;;22.20;35.90;;;26.07;23.21;101805.16;5038547;28;20085;-15
2022/05/10 00:48:10;;;;;;;3.17;1.50;;;22.20;36.00;;;26.00;23.27;101791.31;5092299;28;20097;-15
2022/05/10 00:50:54;;;;;;;1.42;1.20;;;22.20;35.90;;;26.02;23.24;101788.53;5092647;28;20043;-15
2022/05/10 00:53:28;;;;;;;1.25;1.13;;;22.20;35.90;;;26.06;23.23;101798.06;5074553;28;20052;-16
2022/05/10 00:56:04;;;;;;;2.15;1.52;;;22.20;35.90;;;25.98;23.24;101773.66;5092280;28;20089;-15
2022/05/10 00:59:15;;;;;;;2.35;1.55;;;22.20;36.00;;;26.02;23.12;101769.78;5073151;28;20102;-16
2022/05/10 01:01:43;;;;;;;1.63;1.45;;;22.20;35.90;;;25.95;23.19;101766.66;5091861;28;20050;-16
2022/05/10 01:04:35;;;;;;;1.58;1.23;;;22.20;36.00;;;25.98;23.18;101774.50;5057372;28;20049;-15
2022/05/10 01:07:17;;;;;;;1.65;1.25;;;22.10;35.90;;;26.03;23.25;101777.72;5072264;28;20131;-15
2022/05/10 01:10:03;;;;;;;1.33;1.23;;;22.10;35.90;;;26.03;23.23;101771.50;5074246;28;20056;-16
2022/05/10 01:12:42;;;;;;;1.50;1.30;;;22.10;35.90;;;25.93;23.23;101755.19;5074292;28;20388;-16
2022/05/10 01:15:23;;;;;;;1.48;1.30;;;22.10;36.00;;;26.02;23.28;101770.63;5092646;28;20105;-16
2022/05/10 01:17:57;;;;;;;1.95;1.35;;;22.10;35.90;;;25.99;23.18;101753.91;5091886;28;20053;-16
2022/05/10 01:20:38;;;;;;;2.47;1.30;;;22.10;36.10;;;25.95;23.12;101749.72;5074931;28;20094;-16
2022/05/10 01:23:59;;;;;;;2.40;1.33;;;22.10;36.00;;;26.04;23.23;101749.97;5095811;28;20044;-16
2022/05/10 01:27:04;;;;;;;2.15;1.33;;;22.10;36.00;;;26.00;23.21;101747.59;5077523;28;20059;-16
2022/05/10 01:30:00;;;;;;;2.78;1.45;;;22.10;36.00;;;26.00;23.24;101748.44;5077077;28;20462;-16
2022/05/10 01:36:18;;;;;;;1.65;1.30;;;22.10;36.00;;;25.93;23.32;101733.75;5079807;28;20449;-16
2022/05/10 01:39:25;;;;;;;1.88;1.27;;;22.10;36.00;;;25.98;23.18;101736.13;5076439;28;20494;-16
2022/05/10 01:41:57;;;;;;;1.35;1.05;;;22.10;36.00;;;25.98;23.35;101733.47;5075306;28;20087;-16
2022/05/10 01:44:49;;;;;;;1.30;1.20;;;22.10;36.00;;;25.91;23.32;101713.38;5094797;28;20048;-16
2022/05/10 01:47:27;;;;;;;1.20;1.10;;;22.10;36.10;;;25.88;23.42;101706.41;5094921;28;20048;-16
2022/05/10 01:50:13;;;;;;;2.15;1.30;;;22.10;36.00;;;25.97;23.36;101716.50;5075107;28;20041;-16
2022/05/10 01:53:12;;;;;;;1.63;1.13;;;22.10;36.00;;;25.98;23.36;101714.69;5094998;28;20040;-16
2022/05/10 01:55:51;;;;;;;1.42;1.10;;;22.10;36.10;;;25.95;23.48;101718.44;5094849;28;20055;-16
2022/05/10 01:58:23;;;;;;;2.15;1.33;;;22.10;36.10;;;25.95;23.24;101713.06;5094639;28;20044;-16
2022/05/10 02:01:09;;;;;;;1.60;1.50;;;22.10;36.10;;;25.92;23.46;101694.50;5076785;28;20476;-16
2022/05/10 02:04:08;;;;;;;1.63;1.30;;;22.10;36.00;;;25.95;23.41;101697.00;5076041;28;20048;-16
2022/05/10 02:06:44;;;;;;;;;;;22.10;36.10;;;26.09;23.15;101693.34;5074663;28;20361;-16
2022/05/10 02:09:38;;;;;;;1.25;1.15;;;22.10;36.10;;;25.92;23.28;101680.25;5095004;28;19916;-16
2022/05/10 02:12:31;;;;;;;2.88;1.60;;;22.10;36.10;;;25.97;23.16;101691.53;5094648;28;20063;-16
2022/05/10 02:15:26;;;;;;;1.55;1.42;;;22.10;36.10;;;25.95;23.28;101688.97;5076497;28;20051;-16
2022/05/10 02:18:20;;;;;;;1.65;1.30;;;22.10;36.10;;;25.91;23.27;101686.56;5049892;28;20090;-16
2022/05/10 02:20:49;;;;;;;1.75;1.10;;;22.10;36.10;;;25.95;23.39;101685.41;5094530;28;20044;-16
2022/05/10 02:23:46;;;;;;;1.63;1.30;;;22.10;36.10;;;25.94;23.38;101689.88;5094553;28;20043;-16
2022/05/10 02:26:16;;;;;;;1.50;1.38;;;22.10;36.10;;;25.87;23.36;101676.06;5076282;28;20055;-16
2022/05/10 02:29:03;;;;;;;1.40;1.20;;;22.10;36.10;;;25.89;23.37;101675.94;5077042;28;20134;-16
2022/05/10 02:34:38;;;;;;;1.85;1.58;;;22.10;36.10;;;25.94;23.45;101676.47;5076693;28;20048;-16
2022/05/10 02:37:04;;;;;;;1.30;1.20;;;22.10;36.10;;;25.91;23.42;101671.38;5074292;28;20131;-16
2022/05/10 02:39:30;;;;;;;1.65;1.30;;;22.10;36.20;;;25.93;23.35;101668.56;5093859;28;20067;-16
2022/05/10 02:41:59;;;;;;;1.70;1.20;;;22.10;36.20;;;25.92;23.45;101665.03;5094225;28;20059;-16
2022/05/10 02:44:24;;;;;;;1.40;1.30;;;22.10;36.70;;;25.89;23.42;101651.84;5074639;28;20472;-16
2022/05/10 02:46:50;;;;;;;1.38;1.27;;;22.10;36.20;;;25.93;23.43;101665.88;5093707;28;20075;-16
2022/05/10 02:49:18;;;;;;;1.73;1.30;;;22.10;36.30;;;25.94;23.42;101664.91;5093624;28;20054;-16
2022/05/10 02:51:44;;;;;;;1.45;1.35;;;22.10;36.20;;;25.87;23.47;101653.78;5094336;28;20055;-16
2022/05/10 02:54:10;;;;;;;1.48;1.27;;;22.00;36.20;;;25.86;23.50;101652.94;5093869;28;20052;-16
2022/05/10 02:56:36;;;;;;;1.30;1.20;;;22.10;36.30;;;25.93;23.36;101655.16;5093695;28;20048;-16
2022/05/10 02:59:33;;;;;;;2.13;1.20;;;22.00;36.20;;;25.86;23.45;101644.91;5059294;28;20048;-16
2022/05/10 03:02:12;;;;;;;1.55;1.30;;;22.00;36.20;;;25.88;23.36;101644.78;5093596;28;20488;-16
2022/05/10 03:04:44;;;;;;;1.20;1.10;;;22.00;36.20;;;25.92;23.44;101650.78;5075848;28;20055;-17
2022/05/10 03:07:10;;;;;;;;;;;22.00;36.20;;;26.02;23.25;101644.69;5094034;28;20068;-17
2022/05/10 03:09:36;;;;;;;1.85;1.30;;;22.00;36.20;;;25.95;23.25;101637.19;5093555;28;20379;-16
2022/05/10 03:12:04;;;;;;;1.33;1.17;;;22.00;36.20;;;25.88;23.42;101636.75;5093374;28;20101;-16
2022/05/10 03:14:30;;;;;;;2.35;1.67;;;22.00;36.30;;;25.90;23.56;101634.81;5093111;28;20079;-16
2022/05/10 03:16:55;;;;;;;1.52;1.08;;;22.00;36.20;;;25.92;23.44;101645.41;5093305;28;20548;-15
2022/05/10 03:19:22;;;;;;;1.58;1.30;;;22.00;36.20;;;25.91;23.44;101638.34;5093443;28;20064;-16
2022/05/10 03:21:47;;;;;;;1.20;1.10;;;22.00;36.30;;;25.86;23.48;101631.50;5093290;28;20051;-16
2022/05/10 03:24:13;;;;;;;2.08;1.40;;;22.00;36.30;;;25.82;23.55;101618.41;5093627;28;20052;-16
2022/05/10 03:26:45;;;;;;;1.55;1.15;;;22.00;36.20;;;25.84;23.48;101625.41;5093526;28;20068;-16
2022/05/10 03:29:11;;;;;;;1.80;1.30;;;22.00;36.30;;;25.92;23.53;101637.38;5093253;28;20075;-16
2022/05/10 03:31:37;;;;;;;1.20;1.10;;;22.00;36.30;;;25.89;23.31;101630.41;5093281;28;20048;-16
2022/05/10 03:36:47;;;;;;;1.58;1.20;;;22.00;36.30;;;25.87;23.52;101617.13;5078429;28;20044;-16
2022/05/10 03:39:13;;;;;;;1.73;1.25;;;22.00;36.30;;;25.89;23.48;101622.38;5093029;28;20059;-16
2022/05/10 03:41:39;;;;;;;1.30;1.20;;;22.00;36.30;;;25.86;23.40;101619.91;5093200;28;20377;-16
2022/05/10 03:44:05;;;;;;;1.75;1.10;;;22.00;36.30;;;25.88;23.52;101624.19;5092938;28;20489;-15
2022/05/10 03:46:31;;;;;;;2.03;1.30;;;22.00;36.30;;;25.85;23.53;101607.50;5093178;28;20415;-15
2022/05/10 03:48:56;;;;;;;1.50;1.20;;;22.00;36.30;;;25.85;23.57;101608.34;5093109;28;20052;-15
2022/05/10 03:51:22;;;;;;;1.20;1.10;;;22.00;36.30;;;25.89;23.60;101600.94;5093406;28;20408;-15
2022/05/10 03:53:48;;;;;;;1.75;1.25;;;22.00;36.30;;;25.89;23.52;101601.81;5093467;28;20040;-16
2022/05/10 03:56:14;;;;;;;2.28;1.15;;;22.00;36.30;;;25.90;23.52;101610.69;5093565;28;20047;-16
2022/05/10 03:58:40;;;;;;;1.52;1.10;;;22.00;36.30;;;25.87;23.52;101603.72;5091455;28;20044;-16
2022/05/10 04:01:08;;;;;;;1.30;1.20;;;22.00;36.30;;;25.85;23.44;101594.09;5093249;28;20044;-16
2022/05/10 04:03:35;;;;;;;1.30;1.20;;;22.00;36.30;;;25.90;23.49;101605.34;5092922;28;20078;-15
2022/05/10 04:06:01;;;;;;;1.48;1.30;;;22.00;36.20;;;25.86;23.69;101596.66;5092943;28;20051;-15
2022/05/10 04:08:27;;;;;;;1.25;1.15;;;22.00;36.20;;;25.88;23.39;101600.09;5092639;28;20083;-15
2022/05/10 04:10:53;;;;;;;1.48;1.30;;;22.10;36.30;;;25.89;23.36;101600.94;5092898;28;20052;-15
2022/05/10 04:13:19;;;;;;;1.15;1.05;;;22.10;36.30;;;25.95;23.44;101602.34;5092998;28;20492;-15
2022/05/10 04:15:45;;;;;;;1.45;1.10;;;22.10;36.30;;;25.91;23.42;101595.47;5092870;28;21064;-15
2022/05/10 04:18:11;;;;;;;1.90;1.25;;;22.10;36.20;;;25.94;23.46;101597.94;5092531;28;20399;-15
2022/05/10 04:20:37;;;;;;;1.50;1.17;;;22.10;36.20;;;25.95;23.39;101599.66;5093015;28;20072;-16
2022/05/10 04:23:03;;;;;;;2.65;1.63;;;22.10;36.20;;;25.98;23.43;101600.31;5092640;28;20036;-15
2022/05/10 04:25:28;;;;;;;1.40;1.20;;;22.10;36.20;;;25.97;23.58;101592.38;5092575;28;20048;-16
2022/05/10 04:27:55;;;;;;;0.95;0.95;;;22.10;36.10;;;25.94;23.42;101584.53;5092544;28;20047;-15
2022/05/10 04:30:22;;;;;;;1.83;1.40;;;22.10;36.10;;;25.94;23.50;101581.84;5092775;28;20044;-15
2022/05/10 04:32:49;;;;;;;2.00;1.27;;;22.10;36.10;;;26.00;23.37;101589.50;5092570;28;20055;-16
2022/05/10 04:35:15;;;;;;;1.00;0.90;;;22.10;36.10;;;25.96;23.41;101575.47;5092522;28;20052;-16
2022/05/10 04:37:41;;;;;;;1.25;1.10;;;22.10;36.10;;;26.02;23.48;101588.41;5092345;28;20056;-16
2022/05/10 04:42:52;;;;;;;1.70;1.10;;;22.20;36.10;;;26.01;23.43;101569.75;5092396;28;20450;-16
2022/05/10 04:45:19;;;;;;;1.60;1.20;;;22.20;36.10;;;26.02;23.40;101575.00;5092381;28;20051;-16
2022/05/10 04:47:45;;;;;;;1.38;1.17;;;22.20;36.10;;;26.01;23.46;101572.44;5092508;28;20051;-16
2022/05/10 04:50:12;;;;;;;1.30;1.20;;;22.20;36.00;;;26.01;23.40;101577.78;5092336;28;20055;-16
2022/05/10 04:52:39;;;;;;;1.15;1.00;;;22.20;36.00;;;26.04;23.21;101570.41;5092691;28;20097;-16
2022/05/10 04:55:08;;;;;;;1.10;1.00;;;22.20;36.00;;;26.01;23.24;101554.56;5093724;28;20062;-15
2022/05/10 04:57:38;;;;;;;1.73;1.27;;;22.20;36.00;;;26.10;23.31;101573.63;5095501;28;20079;-15
2022/05/10 05:00:07;;;;;;;1.63;1.13;;;22.20;36.00;;;26.10;23.23;101568.25;5096063;28;20052;-15
2022/05/10 05:02:33;;;;;;;1.20;1.10;;;22.20;36.00;;;26.10;23.33;101568.25;5095682;28;20325;-15
2022/05/10 05:04:59;;;;;;;1.38;1.27;;;22.30;36.00;;;26.13;23.37;101571.56;5096334;28;20376;-16
2022/05/10 05:07:24;;;;;;;1.17;1.08;;;22.20;36.00;;;26.08;23.10;101568.38;5095430;28;20052;-15
2022/05/10 05:09:50;;;;;;;1.25;1.10;;;22.20;35.90;;;26.15;23.34;101574.13;5096017;28;20048;-16
2022/05/10 05:12:17;;;;;;;1.63;1.35;;;22.30;36.00;;;26.10;23.39;101558.38;5095582;28;20458;-15
2022/05/10 05:14:44;;;;;;;1.38;1.27;;;22.30;36.00;;;26.14;23.27;101573.25;5096136;28;20048;-15
2022/05/10 05:17:10;;;;;;;1.20;1.10;;;22.30;36.00;;;26.15;23.20;101566.09;5095415;28;20050;-16
2022/05/10 05:19:36;;;;;;;1.27;1.10;;;22.20;36.00;;;26.16;23.34;101574.03;5095059;28;20052;-15
2022/05/10 05:22:02;;;;;;;1.15;1.02;;;22.30;36.00;;;26.13;23.36;101566.19;5094947;28;20470;-16
2022/05/10 05:24:28;;;;;;;1.35;1.25;;;22.30;36.00;;;26.16;23.27;101574.03;5094918;28;20056;-15
2022/05/10 05:26:54;;;;;;;1.80;1.13;;;22.30;36.00;;;26.16;23.32;101573.16;5094981;28;20507;-16
2022/05/10 05:29:21;;;;;;;2.55;1.30;;;22.30;36.00;;;26.18;23.41;101577.44;5095083;28;20423;-15
2022/05/10 05:31:51;;;;;;;1.83;1.30;;;22.30;36.00;;;26.12;23.37;101567.16;5095277;28;20052;-16
2022/05/10 05:34:17;;;;;;;1.25;1.15;;;22.30;36.00;;;26.17;23.23;101564.16;5095063;28;20075;-15
2022/05/10 05:36:44;;;;;;;1.52;1.20;;;22.30;36.00;;;26.20;23.30;101570.13;5095010;28;20105;-16
2022/05/10 05:39:09;;;;;;;1.17;1.08;;;22.30;36.00;;;26.13;23.39;101557.28;5094765;28;20156;-16
2022/05/10 05:41:35;;;;;;;1.63;1.10;;;22.30;35.90;;;26.22;23.26;101575.38;5095022;28;20048;-16
2022/05/10 05:44:01;;;;;;;1.30;1.00;;;22.30;35.90;;;26.21;23.25;101562.94;5095136;28;20052;-16
2022/05/10 05:46:27;;;;;;;2.85;1.30;;;22.30;35.90;;;26.24;23.34;101577.00;5094801;28;20052;-16
2022/05/10 05:48:52;;;;;;;1.60;1.20;;;22.40;35.90;;;26.24;23.21;101568.09;5094763;28;20121;-16
2022/05/10 05:51:18;;;;;;;1.40;1.30;;;22.40;35.90;;;26.30;23.27;101572.16;5094967;28;20381;-16
2022/05/10 05:53:44;;;;;;;1.20;1.10;;;22.40;35.80;;;26.26;23.25;101560.78;5094722;28;20483;-15
2022/05/10 05:56:10;;;;;;;1.42;1.10;;;22.40;35.80;;;26.34;23.13;101570.94;5077059;28;20051;-15
2022/05/10 05:58:38;;;;;;;1.40;1.30;;;22.50;35.80;;;26.30;23.18;101559.59;5094405;28;20044;-16
2022/05/10 06:01:15;;;;;;;1.38;1.23;;;22.50;35.80;;;26.36;23.14;101569.00;5094492;28;20047;-17
2022/05/10 06:03:42;;;;;;;1.83;1.40;;;22.50;35.70;;;26.39;23.08;101558.91;5076379;28;20078;-16
2022/05/10 06:06:09;;;;;;;1.33;0.98;;;22.60;35.70;;;26.41;23.02;101556.09;5094422;28;20062;-17
2022/05/10 06:08:35;;;;;;;2.42;1.63;;;22.60;35.60;;;26.46;23.21;101553.09;5094149;28;20047;-16
2022/05/10 06:11:00;;;;;;;2.67;1.20;;;22.60;35.60;;;26.48;22.93;101546.66;5094260;28;20051;-17
2022/05/10 06:13:28;;;;;;;1.20;1.10;;;22.70;35.60;;;26.56;23.09;101552.31;5094330;28;20044;-16
2022/05/10 06:15:54;;;;;;;1.73;1.40;;;22.70;35.50;;;26.56;22.99;101544.25;5094351;28;20054;-17
2022/05/10 06:18:20;;;;;;;2.35;1.48;;;22.80;35.40;;;26.66;22.99;101546.25;5093972;28;20055;-16
2022/05/10 06:20:46;;;;;;;1.55;1.10;;;22.80;35.40;;;26.69;22.88;101535.31;5093727;28;20048;-16
2022/05/10 06:23:11;;;;;;;1.70;1.60;;;22.80;35.30;;;26.74;22.68;101543.84;5094012;28;20047;-17
2022/05/10 06:25:37;;;;;;;2.65;1.10;;;22.90;35.30;;;26.74;22.69;101538.50;5094123;28;20052;-17
2022/05/10 06:28:05;;;;;;;1.60;1.10;;;22.90;35.20;;;26.76;22.76;101533.84;5094570;28;20048;-17
2022/05/10 06:30:31;;;;;;;1.80;1.33;;;22.90;35.20;;;26.82;22.87;101549.50;5094352;28;20051;-17
2022/05/10 06:32:58;;;;;;;1.65;1.45;;;22.90;35.20;;;26.84;22.67;101536.81;5094405;28;20055;-17
2022/05/10 06:35:26;;;;;;;1.83;1.38;;;23.00;35.20;;;26.83;22.61;101529.75;5094077;28;20040;-17
2022/05/10 06:40:38;;;;;;;1.50;1.40;;;23.00;35.10;;;26.89;22.86;101521.22;5094341;28;20077;-17
2022/05/10 06:43:05;;;;;;;3.40;1.45;;;23.00;35.00;;;26.92;22.90;101520.97;5074054;28;20090;-17
2022/05/10 06:45:31;;;;;;;1.52;1.25;;;23.10;35.10;;;26.96;22.71;101521.59;5093958;28;20117;-17
2022/05/10 06:47:58;;;;;;;1.60;1.50;;;23.10;35.00;;;27.04;22.58;101515.63;5093899;28;20052;-17
2022/05/10 06:50:26;;;;;;;3.65;1.60;;;23.10;35.00;;;27.07;22.67;101523.47;5094176;28;20056;-17
2022/05/10 06:52:54;;;;;;;1.60;1.50;;;23.20;35.00;;;27.03;22.47;101509.44;5093724;28;20040;-16
2022/05/10 06:55:22;;;;;;;1.42;1.33;;;23.20;34.90;;;27.05;22.49;101499.41;5093682;28;20051;-16
2022/05/10 06:57:48;;;;;;;1.70;1.33;;;23.20;35.00;;;27.12;22.60;101513.22;5094016;28;20043;-16
2022/05/10 07:00:16;;;;;;;2.65;1.55;;;23.20;35.00;;;27.09;22.53;101500.03;5093982;28;20121;-16
2022/05/10 07:02:43;;;;;;;4.00;1.58;;;23.20;34.90;;;27.13;22.43;101498.78;5075611;28;20044;-16
2022/05/10 07:05:12;;;;;;;1.33;1.23;;;23.20;34.90;;;27.13;22.30;101510.41;5093410;28;20075;-16
2022/05/10 07:07:38;;;;;;;3.35;1.83;;;23.20;35.00;;;27.14;22.37;101498.69;5093737;28;20118;-16
2022/05/10 07:10:08;;;;;;;1.77;1.58;;;23.20;34.90;;;27.12;22.41;101489.91;5093590;28;20398;-16
2022/05/10 07:12:39;;;;;;;2.57;1.60;;;23.20;34.90;;;27.14;22.26;101490.63;5094222;28;20100;-17
2022/05/10 07:15:08;;;;;;;1.65;1.50;;;23.20;34.90;;;27.17;22.26;101481.50;5093284;28;20695;-17
2022/05/10 07:17:34;;;;;;;3.05;1.75;;;23.30;34.90;;;27.21;22.35;101487.47;5093087;28;20365;-17
2022/05/10 07:20:02;;;;;;;1.38;1.20;;;23.30;35.40;;;27.21;22.35;101484.78;5093285;28;20048;-17
2022/05/10 07:22:28;;;;;;;1.88;1.52;;;23.30;34.80;;;27.23;22.31;101478.34;5093820;28;20044;-17
2022/05/10 07:24:54;;;;;;;1.92;1.27;;;23.30;34.70;;;27.29;22.55;101482.38;5093321;28;20044;-17
2022/05/10 07:27:21;;;;;;;2.45;1.52;;;23.40;34.70;;;27.29;22.37;101477.84;5093327;28;20051;-16
2022/05/10 07:29:48;;;;;;;2.50;1.85;;;23.50;34.60;;;27.41;22.22;101475.19;5093345;28;20095;-17
2022/05/10 07:32:16;;;;;;;1.95;1.70;;;23.50;34.40;;;27.49;22.31;101492.38;5075128;28;20040;-17
2022/05/10 07:34:45;;;;;;;2.10;1.67;;;23.60;34.40;;;27.47;22.26;101486.28;5093118;28;20071;-17
2022/05/10 07:37:11;;;;;;;3.53;1.73;;;23.60;34.40;;;27.47;22.26;101485.44;5093599;28;20046;-17
2022/05/10 07:39:37;;;;;;;1.52;1.42;;;23.50;34.40;;;27.50;22.06;101480.66;5093331;28;20055;-17
2022/05/10 07:42:04;;;;;;;1.50;1.40;;;23.50;34.50;;;27.49;22.19;101489.69;5092903;28;20062;-17
2022/05/10 07:44:33;;;;;;;2.10;1.52;;;23.50;34.60;;;27.47;22.18;101485.44;5093436;28;20498;-16
2022/05/10 07:46:59;;;;;;;2.60;1.50;;;23.40;34.60;;;27.47;22.37;101480.06;5074100;28;20055;-17
2022/05/10 07:49:25;;;;;;;2.90;1.77;;;23.40;34.60;;;27.45;22.20;101479.31;5092727;28;20488;-17
2022/05/10 07:51:51;;;;;;;2.90;1.50;;;23.40;34.70;;;27.36;22.04;101464.78;5093346;28;20442;-17
2022/05/10 07:54:18;;;;;;;2.28;1.80;;;23.40;34.70;;;27.38;22.01;101468.22;5092695;28;20052;-17
2022/05/10 07:56:44;;;;;;;1.50;1.40;;;23.40;35.30;;;27.43;22.21;101483.97;5092978;28;20117;-16
2022/05/10 07:59:10;;;;;;;1.73;1.58;;;23.40;34.70;;;27.39;22.29;101480.66;5092686;28;20040;-16
2022/05/10 08:01:36;;;;;;;2.50;1.40;;;23.40;34.80;;;27.40;22.19;101477.03;5074495;28;20097;-17
2022/05/10 08:04:04;;;;;;;2.42;1.55;;;23.40;34.80;;;27.39;22.17;101475.28;5092991;28;20048;-16
2022/05/10 08:06:30;;;;;;;2.65;1.70;;;23.40;34.80;;;27.40;22.12;101474.34;5092607;28;20488;-17
2022/05/10 08:08:56;;;;;;;2.33;1.50;;;23.40;34.80;;;27.38;22.12;101472.72;5092552;28;20044;-17
2022/05/10 08:11:22;;;;;;;1.48;1.30;;;23.40;34.80;;;27.31;22.21;101461.63;5091231;28;20056;-17
2022/05/10 08:13:49;;;;;;;1.83;1.65;;;23.40;34.80;;;27.34;22.15;101462.22;5092404;28;20047;-17
2022/05/10 08:16:15;;;;;;;1.42;1.33;;;23.30;34.80;;;27.38;22.12;101462.84;5092775;28;20052;-17
2022/05/10 08:18:45;;;;;;;2.45;1.60;;;23.30;34.80;;;27.31;22.03;101451.72;5092847;28;20468;-17
2022/05/10 08:21:13;;;;;;;2.67;1.58;;;23.40;34.80;;;27.37;22.35;101462.97;5092455;28;20076;-17
2022/05/10 08:23:39;;;;;;;1.95;1.50;;;23.30;34.70;;;27.29;22.27;101445.63;5092577;28;20395;-17
2022/05/10 08:26:06;;;;;;;1.80;1.38;;;23.40;34.80;;;27.34;22.33;101458.69;5092314;28;20079;-17
2022/05/10 08:28:34;;;;;;;1.40;1.30;;;23.40;34.80;;;27.30;22.36;101454.56;5092263;28;20101;-17
2022/05/10 08:31:04;;;;;;;3.13;1.60;;;23.30;34.80;;;27.30;22.40;101457.25;5095219;28;20398;-17
2022/05/10 08:33:37;;;;;;;1.88;1.63;;;23.30;34.80;;;27.35;22.16;101461.25;5095788;28;20101;-17
2022/05/10 08:36:05;;;;;;;3.58;1.90;;;23.30;34.80;;;27.35;22.26;101458.56;5096105;28;20036;-17
2022/05/10 08:38:31;;;;;;;2.95;1.58;;;23.40;34.80;;;27.38;22.06;101456.63;5095628;28;20089;-17
2022/05/10 08:41:11;;;;;;;1.58;1.40;;;23.40;34.80;;;27.38;22.41;101448.56;5077703;28;20544;-17
2022/05/10 08:43:57;;;;;;;2.53;1.70;;;23.40;34.70;;;27.40;22.33;101454.66;5078317;28;20101;-17
2022/05/10 08:46:37;;;;;;;1.50;1.30;;;23.40;34.70;;;27.35;22.23;101453.22;5077592;28;20090;-17
2022/05/10 08:49:13;;;;;;;2.10;1.43;;;23.40;34.80;;;27.31;22.26;101443.69;5095691;28;20143;-17
2022/05/10 08:51:39;;;;;;;2.72;1.60;;;23.30;34.70;;;27.31;22.06;101438.31;5077614;28;20106;-17
2022/05/10 08:54:06;;;;;;;1.65;1.50;;;23.30;34.80;;;27.35;22.41;101452.38;5095529;28;20499;-17
2022/05/10 08:56:48;;;;;;;2.10;1.60;;;23.30;34.90;;;27.33;22.43;101456.97;5095423;28;20036;-17
2022/05/10 08:59:57;;;;;;;3.75;1.70;;;23.30;34.90;;;27.31;22.42;101443.69;5077351;28;20052;-17
2022/05/10 09:02:44;;;;;;;2.70;1.48;;;23.30;34.90;;;27.32;22.22;101437.34;5077064;28;20094;-17
2022/05/10 09:05:23;;;;;;;2.10;1.88;;;23.30;34.80;;;27.32;22.30;101436.50;5094748;28;20126;-17
2022/05/10 09:08:28;;;;;;;2.17;1.60;;;23.30;34.90;;;27.35;22.33;101438.94;5095429;28;20051;-18
2022/05/10 09:11:03;;;;;;;2.47;1.70;;;23.30;34.90;;;27.29;22.33;101424.16;5095316;28;20044;-17
2022/05/10 09:13:30;;;;;;;3.72;1.63;;;23.30;34.90;;;27.28;22.19;101424.25;5095179;28;20055;-17
2022/05/10 09:16:16;;;;;;;3.13;1.73;;;23.30;34.90;;;27.31;22.19;101432.94;5095003;28;20052;-17
2022/05/10 09:18:54;;;;;;;5.38;1.80;;;23.30;34.90;;;27.27;22.39;101417.19;5076894;28;20050;-17
2022/05/10 09:21:23;;;;;;;1.80;1.30;;;23.30;34.90;;;27.31;22.38;101415.97;5095225;28;20051;-17
2022/05/10 09:24:00;;;;;;;1.40;1.27;;;23.30;34.90;;;27.33;22.27;101430.13;5076520;28;20132;-17
2022/05/10 09:26:42;;;;;;;1.88;1.40;;;23.30;34.90;;;27.30;22.30;101422.34;5077084;28;20070;-17
2022/05/10 09:29:50;;;;;;;2.13;1.60;;;23.40;35.00;;;27.33;22.50;101422.94;5095095;28;20048;-17
2022/05/10 09:35:16;;;;;;;1.92;1.60;;;23.30;35.00;;;27.27;22.38;101418.03;5095293;28;20044;-17
2022/05/10 09:37:51;;;;;;;1.95;1.60;;;23.30;35.00;;;27.29;22.27;101407.19;5075167;28;20052;-17
2022/05/10 09:40:30;;;;;;;3.00;1.45;;;23.30;35.00;;;27.24;22.32;101395.94;5094277;28;20051;-17
2022/05/10 09:43:34;;;;;;;1.77;1.30;;;23.30;35.00;;;27.25;22.55;101389.59;5095068;28;20059;-17
2022/05/10 09:46:23;;;;;;;2.60;1.75;;;23.30;35.00;;;27.25;22.50;101395.81;5094858;28;20649;-17
2022/05/10 09:48:49;;;;;;;2.30;1.40;;;23.30;35.10;;;27.23;22.30;101380.81;5094668;28;20096;-17
2022/05/10 09:51:27;;;;;;;1.50;1.40;;;23.30;35.10;;;27.26;22.27;101385.94;5094038;28;20044;-17
2022/05/10 09:53:55;;;;;;;2.95;1.45;;;23.30;35.20;;;27.26;22.52;101388.63;5094076;28;20700;-19
2022/05/10 09:56:23;;;;;;;1.83;1.60;;;23.30;35.20;;;27.26;22.49;101383.25;5092989;28;20158;-17
2022/05/10 09:58:57;;;;;;;2.67;1.40;;;23.30;35.40;;;27.23;22.40;101370.06;5093891;28;20048;-17
2022/05/10 10:01:56;;;;;;;1.50;1.40;;;23.30;35.20;;;27.19;22.57;101361.41;5058646;28;20051;-17
2022/05/10 10:04:35;;;;;;;2.00;1.38;;;23.30;35.20;;;27.23;22.30;101364.69;5057675;28;20131;-16
2022/05/10 10:07:18;;;;;;;2.22;1.30;;;23.30;35.20;;;27.22;22.51;101363.84;5094299;28;20052;-16
2022/05/10 10:09:48;;;;;;;1.98;1.60;;;23.30;35.20;;;27.27;22.40;101364.34;5094062;28;20048;-16
2022/05/10 10:12:42;;;;;;;2.03;1.60;;;23.30;35.20;;;27.28;22.62;101365.19;5094010;28;20078;-17
2022/05/10 10:15:36;;;;;;;2.20;1.70;;;23.30;35.30;;;27.23;22.27;101352.16;5091588;28;20052;-17
2022/05/10 10:18:08;;;;;;;2.35;1.77;;;23.30;35.20;;;27.25;22.54;101349.31;5072762;28;20488;-17
2022/05/10 10:20:57;;;;;;;1.50;1.40;;;23.30;35.30;;;27.26;22.75;101349.19;5092853;28;20054;-18
2022/05/10 10:23:41;;;;;;;3.47;1.67;;;23.30;35.30;;;27.26;22.73;101340.28;5093267;28;20124;-16
2022/05/10 10:26:33;;;;;;;2.25;1.63;;;23.30;35.30;;;27.27;22.49;101342.00;5075666;28;20514;-16
2022/05/10 10:29:40;;;;;;;2.50;1.77;;;23.30;35.30;;;27.22;22.65;101337.00;5076503;28;20069;-16
2022/05/10 10:32:16;;;;;;;1.60;1.40;;;23.30;35.30;;;27.25;22.75;101342.13;5093757;28;20063;-16
2022/05/10 10:34:57;;;;;;;1.67;1.48;;;23.30;35.40;;;27.25;22.72;101338.56;5075612;28;20404;-16
2022/05/10 10:37:32;;;;;;;2.15;1.58;;;23.20;35.40;;;27.22;22.67;101315.53;5093844;28;20238;-16
2022/05/10 10:40:27;;;;;;;2.42;1.73;;;23.30;35.50;;;27.16;22.70;101302.59;5075069;28;20121;-17
2022/05/10 10:43:13;;;;;;;1.60;1.45;;;23.30;35.50;;;27.25;22.56;101312.59;5093982;28;20051;-17
2022/05/10 10:45:45;;;;;;;3.85;2.22;;;23.30;35.50;;;27.22;22.62;101301.25;5093008;28;20048;-18
2022/05/10 10:48:29;;;;;;;3.58;1.67;;;23.30;35.50;;;27.26;22.53;101303.53;5092387;28;20048;-18
2022/05/10 10:50:57;;;;;;;1.90;1.63;;;23.30;35.60;;;27.27;22.68;101299.06;5091873;28;20054;-17
2022/05/10 10:53:26;;;;;;;3.13;1.92;;;23.30;35.60;;;27.22;22.81;101294.06;5074353;28;20054;-16